Time;durP1;ratioP1;P1;durP2;ratioP2;P2;SDS_P1;SDS_P2;PMS_P1;PMS_P2;Temp;Humidity;BMP_temperature;BMP_pressure;BME280_temperature;BME280_humidity;BME280_pressure;Samples;Min_cycle;Max_cycle;Signal;HPM_P1;HPM_P2
2022/11/14 00:01:25;;;;;;;;;35.50;29.50;;;;;7.98;76.30;100644.44;6255031;22;45174;-90
2022/11/14 00:03:51;;;;;;;;;27.50;23.00;;;;;7.86;76.46;100636.63;6251150;22;45723;-90
2022/11/14 00:06:16;;;;;;;;;23.00;20.50;;;;;7.09;76.13;100487.28;6251298;22;45103;-91
2022/11/14 00:08:41;;;;;;;;;22.75;20.75;;;;;7.94;76.27;100632.19;6278413;22;47016;-90
2022/11/14 00:11:08;;;;;;;;;21.50;20.75;;;;;6.47;76.16;100381.72;6285654;22;45437;-90
2022/11/14 00:13:37;;;;;;;;;36.00;29.25;;;;;6.90;76.38;100440.13;6279150;22;45235;-91
2022/11/14 00:16:03;;;;;;;;;34.50;25.25;;;;;6.76;76.13;100421.81;6252106;22;45356;-89
2022/11/14 00:18:29;;;;;;;;;38.25;30.00;;;;;6.79;76.76;100423.56;6253564;22;48321;-91
2022/11/14 00:20:59;;;;;;;;;36.75;29.50;;;;;6.95;76.23;100445.34;6284029;22;45308;-91
2022/11/14 00:23:25;;;;;;;;;35.75;30.25;;;;;6.91;76.77;100441.00;6258077;22;44738;-91
2022/11/14 00:25:50;;;;;;;;;38.25;34.25;;;;;7.16;76.59;100475.84;6282832;22;45340;-91
2022/11/14 00:28:16;;;;;;;;;29.25;25.50;;;;;6.81;76.46;100413.91;6280085;22;47464;-91
2022/11/14 00:30:46;;;;;;;;;31.00;25.00;;;;;6.98;76.28;100441.81;6283371;22;45205;-90
2022/11/14 00:33:11;;;;;;;;;34.00;28.50;;;;;6.78;76.54;100406.06;6252990;22;45147;-90
2022/11/14 00:35:40;;;;;;;;;31.75;27.25;;;;;6.88;76.39;100430.53;6254028;22;45149;-90
2022/11/14 00:38:05;;;;;;;;;38.50;29.25;;;;;7.91;76.52;100616.44;6275325;22;47247;-90
2022/11/14 00:40:30;;;;;;;;;34.25;29.75;;;;;7.27;76.85;100517.84;6278548;22;45300;-90
2022/11/14 00:42:57;;;;;;;;;32.50;29.25;;;;;7.89;76.55;100610.28;6249811;22;45285;-91
2022/11/14 00:45:23;;;;;;;;;38.50;30.75;;;;;6.69;76.58;100414.84;6277448;22;45097;-89
2022/11/14 00:47:48;;;;;;;;;30.00;25.50;;;;;6.87;76.84;100442.78;6277352;22;46232;-89
2022/11/14 00:50:15;;;;;;;;;35.25;31.75;;;;;6.66;77.01;100387.75;6281997;22;45393;-90
2022/11/14 00:52:40;;;;;;;;;26.00;23.25;;;;;6.97;76.82;100440.97;6277702;22;45274;-91
2022/11/14 00:55:06;;;;;;;;;28.25;25.75;;;;;7.47;76.30;100515.94;6284917;22;45280;-91
2022/11/14 00:57:32;;;;;;;;;33.50;26.00;;;;;6.89;76.65;100420.00;6255413;22;47924;-91
2022/11/14 00:59:58;;;;;;;;;30.25;24.50;;;;;6.83;76.85;100424.41;6283658;22;45381;-91
2022/11/14 01:02:23;;;;;;;;;34.00;28.25;;;;;7.91;76.67;100589.22;6254520;22;45190;-90
2022/11/14 01:04:49;;;;;;;;;27.25;24.00;;;;;6.94;76.93;100444.47;6254917;22;45185;-89
2022/11/14 01:07:14;;;;;;;;;27.00;23.00;;;;;7.25;76.37;100488.91;6280506;22;46990;-92
2022/11/14 01:09:39;;;;;;;;;25.75;21.75;;;;;7.37;77.00;100513.38;6282457;22;45317;-90
2022/11/14 01:12:05;;;;;;;;;30.00;25.25;;;;;6.35;76.73;100346.81;6284465;22;45348;-92
2022/11/14 01:14:32;;;;;;;;;24.25;21.00;;;;;6.21;76.61;100325.91;6264840;22;45373;-92
2022/11/14 01:16:57;;;;;;;;;26.50;23.00;;;;;6.70;76.57;100395.59;6244390;22;47079;-92
2022/11/14 01:19:23;;;;;;;;;22.50;19.50;;;;;6.82;76.86;100410.41;6284293;22;45368;-91
2022/11/14 01:21:48;;;;;;;;;28.75;24.50;;;;;7.33;76.58;100494.13;6254243;22;45127;-91
2022/11/14 01:24:13;;;;;;;;;24.25;24.25;;;;;6.18;76.45;100296.16;6259496;22;45218;-91
2022/11/14 01:26:39;;;;;;;;;21.25;18.75;;;;;6.82;77.21;100410.41;6260895;22;46871;-92
2022/11/14 01:29:05;;;;;;;;;25.50;23.25;;;;;6.38;76.27;100319.69;6285817;22;45335;-92
2022/11/14 01:31:30;;;;;;;;;28.50;25.00;;;;;7.01;76.64;100428.66;6231895;22;45132;-93
2022/11/14 01:33:56;;;;;;;;;26.50;22.25;;;;;7.55;77.01;100523.75;6251422;22;45512;-91
2022/11/14 01:36:21;;;;;;;;;30.00;24.50;;;;;6.52;76.62;100338.81;6274929;22;46545;-92
2022/11/14 01:38:52;;;;;;;;;27.00;18.00;;;;;6.53;76.72;100351.06;6276745;22;45100;-92
2022/11/14 01:41:20;;;;;;;;;32.00;20.00;;;;;7.14;76.36;100448.72;6275357;22;45298;-91
2022/11/14 01:43:46;;;;;;;;;24.75;24.50;;;;;6.06;76.68;100270.88;6259713;22;45179;-91
2022/11/14 01:46:20;;;;;;;;;31.75;24.50;;;;;7.75;76.97;100551.66;6265533;22;47117;-90
2022/11/14 01:48:48;;;;;;;;;26.75;23.00;;;;;7.72;77.05;100541.16;6261693;22;45083;-93
2022/11/14 01:51:39;;;;;;;;;30.00;26.00;;;;;7.71;76.84;100549.94;6286601;22;45166;-90
2022/11/14 01:54:10;;;;;;;;;31.75;27.50;;;;;7.70;76.82;100548.19;6278586;22;45336;-92
2022/11/14 01:56:48;;;;;;;;;28.25;23.50;;;;;6.59;76.91;100365.94;6255289;22;46971;-91
2022/11/14 01:59:21;;;;;;;;;25.50;21.75;;;;;6.98;76.67;100416.41;6259273;22;45252;-91
2022/11/14 02:01:49;;;;;;;;;37.00;23.00;;;;;7.68;76.82;100542.06;6253944;22;45287;-91
2022/11/14 02:04:25;;;;;;;;;35.75;33.00;;;;;6.88;77.36;100404.25;6278074;22;45492;-92
2022/11/14 02:06:56;;;;;;;;;32.00;25.75;;;;;7.51;77.28;100515.91;6286082;22;45451;-92
2022/11/14 02:09:22;;;;;;;;;21.75;21.25;;;;;6.66;77.10;100385.13;6284955;22;45252;-92
2022/11/14 02:11:50;;;;;;;;;31.75;27.00;;;;;7.57;77.01;100543.03;6256525;22;45294;-92
2022/11/14 02:14:16;;;;;;;;;31.00;30.00;;;;;5.60;77.03;100202.91;6259056;22;45197;-92
2022/11/14 02:16:42;;;;;;;;;27.25;25.75;;;;;6.45;77.45;100347.59;6253833;22;47177;-91
2022/11/14 02:19:08;;;;;;;;;26.75;20.75;;;;;6.38;77.01;100345.94;6249363;22;45557;-91
2022/11/14 02:21:34;;;;;;;;;27.25;25.50;;;;;6.40;76.74;100354.66;6254096;22;45270;-90
2022/11/14 02:23:59;;;;;;;;;31.25;27.25;;;;;6.66;77.52;100400.88;6285678;22;45335;-91
2022/11/14 02:26:25;;;;;;;;;26.00;20.00;;;;;6.58;77.65;100412.31;6292046;22;47089;-91
2022/11/14 02:28:53;;;;;;;;;32.00;20.50;;;;;6.57;77.66;100404.44;6256430;22;45123;-92
2022/11/14 02:31:18;;;;;;;;;19.25;19.25;;;;;6.25;77.78;100333.75;6259842;22;44704;-91
2022/11/14 02:33:44;;;;;;;;;23.75;22.25;;;;;5.77;77.96;100258.78;6266813;22;45364;-91
2022/11/14 02:36:09;;;;;;;;;31.25;27.50;;;;;6.55;77.58;100408.84;6291383;22;46892;-90
2022/11/14 02:38:35;;;;;;;;;34.00;26.00;;;;;6.42;77.86;100370.41;6268847;22;45139;-90
2022/11/14 02:41:01;;;;;;;;;33.75;23.50;;;;;5.72;78.09;100271.03;6269259;22;44812;-90
2022/11/14 02:43:27;;;;;;;;;30.50;24.00;;;;;6.18;78.23;100332.91;6261262;22;45167;-89
2022/11/14 02:45:52;;;;;;;;;20.25;18.00;;;;;6.86;78.64;100472.56;6281759;22;46987;-89
2022/11/14 02:48:18;;;;;;;;;26.00;18.25;;;;;5.47;78.42;100236.19;6258472;22;45171;-88
2022/11/14 02:50:43;;;;;;;;;18.00;14.25;;;;;6.11;77.85;100352.22;6286343;22;45178;-89
2022/11/14 02:53:09;;;;;;;;;29.25;23.00;;;;;6.49;78.38;100416.75;6293384;22;44868;-88
2022/11/14 02:55:35;;;;;;;;;22.50;19.25;;;;;6.25;78.36;100365.25;6261147;22;47170;-90
2022/11/14 02:58:00;;;;;;;;;20.75;16.75;;;;;5.61;77.80;100267.59;6261270;22;46010;-91
2022/11/14 03:00:26;;;;;;;;;17.50;15.00;;;;;4.97;78.28;100154.28;6269481;22;45262;-91
2022/11/14 03:02:52;;;;;;;;;21.50;14.50;;;;;6.62;78.31;100435.91;6269406;22;44888;-89
2022/11/14 03:05:18;;;;;;;;;17.50;17.25;;;;;6.00;78.26;100328.66;6264557;22;45414;-91
2022/11/14 03:07:44;;;;;;;;;19.25;16.75;;;;;6.69;78.52;100420.13;6265378;22;45283;-91
2022/11/14 03:10:10;;;;;;;;;16.75;14.50;;;;;5.12;78.12;100155.97;6257187;22;44818;-92
2022/11/14 03:12:36;;;;;;;;;17.00;16.25;;;;;5.81;78.30;100275.38;6252666;22;44939;-92
2022/11/14 03:15:04;;;;;;;;;18.25;13.50;;;;;7.13;78.17;100483.75;6282675;22;48089;-91
2022/11/14 03:17:33;;;;;;;;;19.75;16.50;;;;;7.15;77.86;100496.88;6259324;22;44639;-91
2022/11/14 03:19:59;;;;;;;;;18.00;13.25;;;;;6.05;78.45;100305.88;6258855;22;45385;-92
2022/11/14 03:22:25;;;;;;;;;21.25;17.00;;;;;6.83;78.36;100456.81;6259096;22;45132;-92
2022/11/14 03:24:51;;;;;;;;;24.00;20.75;;;;;6.72;78.01;100430.59;6264125;22;47335;-92
2022/11/14 03:27:17;;;;;;;;;17.00;15.25;;;;;5.39;78.32;100199.53;6256489;22;45155;-90
2022/11/14 03:29:42;;;;;;;;;23.25;18.00;;;;;5.48;78.23;100224.81;6250209;22;45294;-91
2022/11/14 03:32:08;;;;;;;;;22.75;18.75;;;;;5.79;78.00;100264.88;6250477;22;45684;-90
2022/11/14 03:34:34;;;;;;;;;16.75;14.75;;;;;7.05;78.43;100493.47;6282565;22;45286;-91
2022/11/14 03:37:00;;;;;;;;;17.00;16.25;;;;;6.32;78.46;100382.72;6262632;22;45670;-92
2022/11/14 03:39:26;;;;;;;;;16.00;14.75;;;;;5.82;78.37;100280.59;6258164;22;45273;-91
2022/11/14 03:41:52;;;;;;;;;17.75;14.75;;;;;5.91;77.90;100292.81;6253724;22;45343;-91
2022/11/14 03:44:17;;;;;;;;;17.50;16.25;;;;;5.93;77.83;100301.53;6252760;22;48085;-91
2022/11/14 03:46:43;;;;;;;;;16.50;14.50;;;;;6.44;78.33;100372.16;6257095;22;45379;-91
2022/11/14 03:49:08;;;;;;;;;21.25;15.00;;;;;5.99;77.98;100290.16;6264999;22;45290;-91
2022/11/14 03:51:53;;;;;;;;;15.50;13.00;;;;;7.21;78.26;100483.69;6259633;22;45276;-91
2022/11/14 03:54:19;;;;;;;;;15.50;14.00;;;;;6.51;77.99;100363.34;6282723;22;46729;-91
2022/11/14 03:56:44;;;;;;;;;19.50;15.75;;;;;6.05;77.88;100291.00;6283139;22;45304;-91
2022/11/14 03:59:09;;;;;;;;;19.25;15.00;;;;;6.36;78.04;100338.06;6256791;22;45221;-90
2022/11/14 04:01:35;;;;;;;;;16.25;12.75;;;;;7.26;77.89;100458.25;6257714;22;45210;-91
2022/11/14 04:04:00;;;;;;;;;15.75;12.75;;;;;7.28;78.71;100477.53;6231716;22;46962;-92
2022/11/14 04:06:26;;;;;;;;;17.00;13.00;;;;;6.51;78.18;100357.22;6226416;22;45204;-91
2022/11/14 04:08:51;;;;;;;;;17.50;12.50;;;;;6.00;77.71;100245.56;6262537;22;45405;-91
2022/11/14 04:11:18;;;;;;;;;16.00;14.00;;;;;5.18;77.38;100111.41;6256900;22;45264;-91
2022/11/14 04:13:45;;;;;;;;;18.75;16.75;;;;;6.48;77.93;100318.72;6254928;22;45372;-91
2022/11/14 04:16:10;;;;;;;;;23.75;20.25;;;;;5.57;77.97;100168.84;6251513;22;45373;-92
2022/11/14 04:18:35;;;;;;;;;16.75;14.00;;;;;5.25;77.69;100130.56;6288072;22;45583;-91
2022/11/14 04:21:01;;;;;;;;;20.25;16.50;;;;;5.73;77.90;100236.06;6259339;22;45226;-91
2022/11/14 04:23:26;;;;;;;;;16.00;13.50;;;;;5.79;77.66;100224.66;6254597;22;47444;-90
2022/11/14 04:25:52;;;;;;;;;16.50;13.50;;;;;6.11;77.50;100291.84;6255455;22;45407;-91
2022/11/14 04:28:17;;;;;;;;;11.75;10.50;;;;;6.82;77.66;100405.16;6251442;22;45264;-91
2022/11/14 04:30:44;;;;;;;;;16.75;12.00;;;;;6.21;77.73;100304.91;6253356;22;45615;-91
2022/11/14 04:33:10;;;;;;;;;17.00;10.75;;;;;5.66;77.77;100234.34;6251901;22;46952;-91
2022/11/14 04:35:36;;;;;;;;;17.25;14.75;;;;;6.11;78.04;100311.09;6250433;22;45210;-91
2022/11/14 04:38:02;;;;;;;;;15.50;13.25;;;;;5.32;77.77;100163.75;6229427;22;45135;-91
2022/11/14 04:40:29;;;;;;;;;17.75;13.75;;;;;5.61;78.07;100231.75;6282541;22;45333;-91
2022/11/14 04:42:55;;;;;;;;;22.00;18.50;;;;;7.02;77.97;100467.22;6288005;22;45723;-91
2022/11/14 04:45:22;;;;;;;;;17.25;15.25;;;;;6.33;77.94;100345.06;6260616;22;45522;-91
2022/11/14 04:47:48;;;;;;;;;22.75;20.25;;;;;6.27;78.35;100366.09;6230116;22;45372;-91
2022/11/14 04:50:13;;;;;;;;;18.50;12.75;;;;;5.56;78.99;100237.88;6256053;22;45587;-91
2022/11/14 04:52:39;;;;;;;;;21.50;14.00;;;;;6.82;78.20;100441.03;6257581;22;48192;-91
2022/11/14 04:55:04;;;;;;;;;15.25;11.25;;;;;5.96;78.47;100313.75;6263596;22;45307;-91
2022/11/14 04:57:31;;;;;;;;;19.75;18.50;;;;;5.76;78.70;100278.00;6262716;22;45222;-91
2022/11/14 04:59:56;;;;;;;;;17.25;15.25;;;;;5.70;78.65;100265.78;6257081;22;45197;-90
2022/11/14 05:02:23;;;;;;;;;16.00;14.25;;;;;6.13;78.59;100339.94;6282929;22;47465;-90
2022/11/14 05:04:49;;;;;;;;;19.50;13.50;;;;;5.11;78.77;100165.56;6283790;22;45230;-90
2022/11/14 05:07:16;;;;;;;;;9.75;9.75;;;;;5.62;78.56;100261.47;6258673;22;45172;-91
2022/11/14 05:09:41;;;;;;;;;21.75;14.25;;;;;5.39;78.87;100199.53;6280593;22;45255;-90
2022/11/14 05:12:07;;;;;;;;;14.50;13.75;;;;;5.68;78.82;100258.81;6259174;22;48285;-90
2022/11/14 05:14:32;;;;;;;;;13.00;12.50;;;;;5.97;78.66;100282.31;6258114;22;45460;-91
2022/11/14 05:17:01;;;;;;;;;15.25;13.50;;;;;6.23;78.82;100329.38;6281084;22;45233;-92
2022/11/14 05:19:26;;;;;;;;;15.50;11.25;;;;;5.18;78.38;100155.06;6251717;22;45147;-91
2022/11/14 05:21:52;;;;;;;;;14.00;11.50;;;;;5.28;78.36;100169.88;6256622;22;47340;-91
2022/11/14 05:24:18;;;;;;;;;15.25;15.25;;;;;6.28;78.39;100333.75;6266447;22;45147;-89
2022/11/14 05:26:43;;;;;;;;;18.00;12.25;;;;;6.94;78.34;100431.34;6261662;22;45170;-91
2022/11/14 05:29:09;;;;;;;;;13.50;12.25;;;;;6.21;78.61;100328.53;6257188;22;45172;-90
2022/11/14 05:31:34;;;;;;;;;15.25;10.00;;;;;6.50;78.10;100348.47;6264832;22;47359;-91
2022/11/14 05:33:59;;;;;;;;;16.00;14.50;;;;;6.48;78.66;100352.84;6267468;22;44663;-91
2022/11/14 05:36:25;;;;;;;;;17.50;15.50;;;;;5.75;78.92;100217.69;6268314;22;46124;-91
2022/11/14 05:38:50;;;;;;;;;13.75;10.25;;;;;6.68;78.78;100391.22;6263947;22;45337;-90
2022/11/14 05:41:27;;;;;;;;;11.00;9.50;;;;;6.25;78.62;100310.13;6264230;22;46846;-90
2022/11/14 05:43:52;;;;;;;;;17.25;11.50;;;;;6.25;78.11;100302.25;6291884;22;45210;-91
2022/11/14 05:46:18;;;;;;;;;16.75;14.75;;;;;6.10;79.13;100280.47;6258343;22;45240;-89
2022/11/14 05:48:43;;;;;;;;;17.50;13.00;;;;;5.23;78.44;100119.25;6258412;22;45343;-88
2022/11/14 05:51:12;;;;;;;;;16.00;13.75;;;;;6.11;78.44;100258.59;6291130;22;45457;-89
2022/11/14 05:53:37;;;;;;;;;16.25;16.00;;;;;6.55;79.02;100332.69;6289108;22;45665;-92
2022/11/14 05:56:12;;;;;;;;;15.50;14.00;;;;;6.50;79.05;100316.97;6283657;22;45205;-92
2022/11/14 05:58:38;;;;;;;;;16.25;15.00;;;;;6.99;78.12;100412.91;6262006;22;45236;-90
2022/11/14 06:01:09;;;;;;;;;22.75;13.75;;;;;7.00;78.56;100398.00;6263387;22;47103;-90
2022/11/14 06:03:37;;;;;;;;;16.00;14.25;;;;;5.25;79.43;100110.47;6287433;22;45302;-90
2022/11/14 06:06:06;;;;;;;;;16.25;12.25;;;;;4.65;78.24;99987.72;6256689;22;45320;-89
2022/11/14 06:08:32;;;;;;;;;16.50;10.75;;;;;5.82;79.36;100188.78;6257444;22;45412;-90
2022/11/14 06:11:06;;;;;;;;;15.50;8.00;;;;;6.26;78.51;100259.38;6284213;22;47910;-91
2022/11/14 06:13:33;;;;;;;;;17.75;14.50;;;;;6.00;78.93;100213.22;6258292;22;45337;-89
2022/11/14 06:16:05;;;;;;;;;13.25;10.00;;;;;7.01;79.08;100399.75;6255606;22;45261;-90
2022/11/14 06:18:31;;;;;;;;;11.75;11.00;;;;;7.02;78.84;100391.00;6257379;22;45288;-90
2022/11/14 06:21:07;;;;;;;;;14.00;11.25;;;;;6.55;78.69;100311.66;6259678;22;47343;-90
2022/11/14 06:23:33;;;;;;;;;21.50;15.25;;;;;6.15;79.04;100248.94;6262638;22;45339;-89
2022/11/14 06:26:06;;;;;;;;;16.50;13.25;;;;;6.08;79.69;100236.78;6288080;22;45293;-89
2022/11/14 06:28:32;;;;;;;;;15.25;14.00;;;;;6.15;79.47;100255.09;6252750;22;45198;-89
2022/11/14 06:34:19;;;;;;;;;15.75;14.25;;;;;5.91;79.25;100218.50;6280558;22;45198;-90
2022/11/14 06:36:48;;;;;;;;;16.25;14.75;;;;;6.66;79.20;100348.34;6253549;22;45550;-90
2022/11/14 06:39:14;;;;;;;;;10.50;8.75;;;;;5.28;79.33;100133.19;6256624;22;45277;-91
2022/11/14 06:41:39;;;;;;;;;14.25;11.75;;;;;5.77;79.38;100202.81;6278079;22;46284;-90
2022/11/14 06:44:06;;;;;;;;;9.25;9.25;;;;;5.22;79.11;100105.25;6249017;22;45266;-91
2022/11/14 06:46:32;;;;;;;;;14.25;10.75;;;;;6.54;79.25;100326.56;6252232;22;45199;-90
2022/11/14 06:48:58;;;;;;;;;18.25;15.25;;;;;7.00;79.14;100419.03;6255813;22;45163;-90
2022/11/14 06:51:24;;;;;;;;;10.25;8.75;;;;;5.67;79.17;100189.75;6240237;22;47147;-91
2022/11/14 06:53:49;;;;;;;;;12.25;11.00;;;;;6.00;79.16;100235.06;6260978;22;45192;-90
2022/11/14 06:56:17;;;;;;;;;12.75;10.00;;;;;6.70;78.84;100376.34;6285162;22;45179;-91
2022/11/14 06:58:46;;;;;;;;;11.00;9.50;;;;;6.41;79.00;100327.53;6256282;22;44867;-90
2022/11/14 07:01:18;;;;;;;;;15.00;11.50;;;;;5.22;78.97;100117.50;6260736;22;48252;-91
2022/11/14 07:04:31;;;;;;;;;14.75;12.25;;;;;7.00;79.38;100450.56;6261112;22;45402;-92
2022/11/14 07:06:57;;;;;;;;;15.50;11.75;;;;;6.12;79.55;100276.09;6190047;23;44851;-91
2022/11/14 07:09:24;;;;;;;;;16.00;16.00;;;;;5.93;79.62;100253.44;6158767;23;45438;-91
2022/11/14 07:11:50;;;;;;;;;12.75;12.75;;;;;7.01;79.44;100444.44;6158920;23;46217;-91
2022/11/14 07:14:15;;;;;;;;;16.75;14.75;;;;;6.58;79.26;100364.16;6162274;23;45287;-91
2022/11/14 07:16:41;;;;;;;;;15.00;14.00;;;;;5.68;79.20;100215.09;6188141;23;45214;-90
2022/11/14 07:19:10;;;;;;;;;8.25;4.00;;;;;6.32;78.91;100324.97;6170976;23;44887;-89
2022/11/14 07:21:36;;;;;;;;;16.50;11.50;;;;;4.85;79.01;100062.69;6148475;23;47231;-92
2022/11/14 07:24:02;;;;;;;;;14.50;10.50;;;;;5.80;79.31;100229.91;6170776;23;45413;-91
2022/11/14 07:26:31;;;;;;;;;14.75;10.25;;;;;6.06;79.64;100276.13;6197149;23;44708;-91
2022/11/14 07:28:59;;;;;;;;;14.75;10.75;;;;;5.34;79.39;100181.22;6170261;23;45172;-93
2022/11/14 07:31:25;;;;;;;;;14.50;11.50;;;;;5.66;79.02;100230.00;6189189;23;45491;-90
2022/11/14 07:34:04;;;;;;;;;12.25;11.25;;;;;6.50;79.51;100358.97;6164403;23;45283;-93
2022/11/14 07:36:42;;;;;;;;;15.75;12.50;;;;;5.69;79.56;100236.94;6185229;22;45385;-95
2022/11/14 07:39:08;;;;;;;;;9.75;9.00;;;;;5.82;79.20;100254.38;6257256;22;45564;-93
2022/11/14 07:41:48;;;;;;;;;12.50;9.00;;;;;6.91;79.01;100435.75;6262107;22;45185;-95
2022/11/14 07:44:16;;;;;;;;;9.75;9.00;;;;;6.90;79.69;100439.25;6242606;22;45355;-94
2022/11/14 07:46:44;;;;;;;;;12.75;8.75;;;;;5.22;79.63;100154.19;6280392;22;44814;-94
2022/11/14 07:49:20;;;;;;;;;13.25;9.00;;;;;6.07;79.35;100300.63;6288034;22;45091;-93
2022/11/14 07:52:02;;;;;;;;;10.75;8.50;;;;;5.06;78.98;100106.22;6265420;22;46827;-91
2022/11/14 08:00:55;;;;;;;;;13.50;10.00;;;;;5.77;79.29;100237.78;6284727;22;45342;-93
2022/11/14 08:03:21;;;;;;;;;10.00;10.00;;;;;5.49;79.39;100195.97;6288187;22;47002;-93
2022/11/14 08:06:16;;;;;;;;;9.00;8.00;;;;;5.27;79.74;100163.78;6258315;22;45135;-92
2022/11/14 08:37:41;;;;;;;;;11.25;9.75;;;;;7.16;79.70;100423.28;6257103;22;45497;-94
2022/11/14 08:40:21;;;;;;;;;14.25;10.00;;;;;5.44;79.35;100121.72;6253337;22;45259;-92
2022/11/14 08:43:05;;;;;;;;;8.75;8.75;;;;;6.00;79.80;100234.19;6227376;22;45331;-94
2022/11/14 08:45:35;;;;;;;;;8.00;6.25;;;;;5.57;79.55;100135.63;6254341;22;45652;-94
2022/11/14 08:48:16;;;;;;;;;12.00;10.00;;;;;6.90;79.53;100391.97;6224794;22;45211;-93
2022/11/14 08:50:53;;;;;;;;;13.25;10.00;;;;;6.79;80.42;100357.88;6258503;22;45331;-95
2022/11/14 08:53:51;;;;;;;;;;;;;;;;;;;;;
2022/11/14 08:56:22;;;;;;;;;12.25;10.25;;;;;6.81;80.29;100361.38;6248866;22;72420;-92
2022/11/14 09:03:10;;;;;;;;;12.00;11.25;;;;;7.29;79.67;100432.81;6266673;22;44782;-91
2022/11/14 09:30:15;;;;;;;;;25.00;17.50;;;;;7.75;79.76;100442.00;6110345;23;45254;-94
2022/11/14 10:54:52;;;;;;;;;29.25;23.75;;;;;9.38;78.81;100380.00;6289144;22;45954;-91
2022/11/14 10:58:03;;;;;;;;;29.25;24.75;;;;;8.43;78.48;100192.78;6250241;22;45130;-93
2022/11/14 11:03:49;;;;;;;;;19.75;19.50;;;;;9.70;78.33;100387.34;6161892;23;45273;-93
2022/11/14 11:07:07;;;;;;;;;;;;;;;;;;;;;
2022/11/14 11:12:35;;;;;;;;;20.00;18.75;;;;;8.56;78.41;100152.16;6167534;23;45267;-90
2022/11/14 11:15:23;;;;;;;;;23.75;20.75;;;;;9.57;78.32;100311.97;6163881;23;45378;-91
2022/11/14 11:18:03;;;;;;;;;22.25;18.25;;;;;10.11;78.39;100380.34;6160366;23;45599;-92
2022/11/14 11:20:37;;;;;;;;;24.25;20.50;;;;;10.26;77.99;100365.06;6161297;23;47209;-91
2022/11/14 11:23:08;;;;;;;;;20.50;18.50;;;;;10.03;78.02;100294.28;6132862;23;45232;-91
2022/11/14 11:25:35;;;;;;;;;23.50;18.50;;;;;10.20;77.84;100292.09;6163728;23;45232;-91
2022/11/14 11:28:16;;;;;;;;;25.25;22.00;;;;;10.81;77.52;100358.56;6137143;23;45387;-92
2022/11/14 11:30:59;;;;;;;;;27.75;24.75;;;;;10.42;76.94;100268.75;6158963;23;47588;-92
2022/11/14 11:33:54;;;;;;;;;27.50;24.25;;;;;10.73;76.83;100265.34;6160056;23;44731;-92
2022/11/14 11:39:28;;;;;;;;;33.25;25.75;;;;;10.99;75.74;100230.28;6196910;22;44893;-90
2022/11/14 11:59:49;;;;;;;;;22.25;19.25;;;;;14.15;70.54;100204.69;6247033;22;45214;-91
2022/11/14 12:02:30;;;;;;;;;23.75;20.75;;;;;13.49;70.74;100035.59;6107561;23;45274;-94
2022/11/14 12:09:23;;;;;;;;;20.25;17.50;;;;;15.56;69.47;100219.06;6133642;23;45141;-91
2022/11/14 12:12:17;;;;;;;;;22.25;22.25;;;;;16.09;69.92;100270.75;6054697;23;44584;-91
2022/11/14 12:19:02;;;;;;;;;;;;;;;;;;;;;
2022/11/14 12:22:34;;;;;;;;;;;;;;;;;;;;;
2022/11/14 12:42:27;;;;;;;;;13.50;13.25;;;;;15.72;66.07;99933.28;5934000;24;45401;-94
2022/11/14 12:45:05;;;;;;;;;23.75;23.00;;;;;16.94;66.15;100199.03;5929256;24;45221;-93
2022/11/14 12:47:32;;;;;;;;;21.50;20.00;;;;;16.52;66.61;100187.81;5926182;24;46848;-94
2022/11/14 12:50:02;;;;;;;;;14.00;14.00;;;;;16.41;65.63;100231.00;5904337;24;45232;-92
2022/11/14 12:53:12;;;;;;;;;21.25;20.75;;;;;14.47;67.58;99984.47;5912457;24;44823;-93
2022/11/14 12:55:47;;;;;;;;;24.75;23.25;;;;;15.23;67.70;100189.50;5954072;23;45228;-92
2022/11/14 12:58:45;;;;;;;;;18.00;14.50;;;;;14.82;68.63;100173.56;5990683;23;45112;-93
2022/11/14 13:01:40;;;;;;;;;;;;;;;;;;;;;
2022/11/14 13:04:42;;;;;;;;;21.75;19.75;;;;;14.38;69.71;100238.34;5989631;23;67960;-93
2022/11/14 13:08:03;;;;;;;;;20.00;18.50;;;;;14.08;70.21;100240.44;6026415;23;45392;-92
2022/11/14 13:11:15;;;;;;;;;;;;;;;;;;;;;
2022/11/14 13:31:30;;;;;;;;;28.75;25.25;;;;;12.82;72.52;100217.63;5993532;23;44844;-96
2022/11/14 13:38:02;;;;;;;;;27.50;26.50;;;;;11.26;73.11;99967.66;6027039;23;44822;-94
2022/11/14 13:41:00;;;;;;;;;28.00;26.75;;;;;11.48;73.48;100031.34;6000949;23;44817;-94
2022/11/14 14:05:14;;;;;;;;;27.00;23.75;;;;;12.46;74.73;100174.69;5975370;23;45191;-93
2022/11/14 14:11:30;;;;;;;;;25.75;23.00;;;;;11.37;75.01;99982.28;6085759;23;44595;-92
2022/11/14 14:21:36;;;;;;;;;21.75;20.50;;;;;12.47;76.11;100165.84;6010696;23;44617;-91
2022/11/14 14:24:43;;;;;;;;;25.50;23.25;;;;;12.46;76.06;100170.25;5933283;23;45407;-91
2022/11/14 14:27:36;;;;;;;;;23.50;21.50;;;;;12.43;76.28;100160.63;5935422;24;45318;-92
2022/11/14 14:30:20;;;;;;;;;23.25;22.50;;;;;12.11;76.54;100110.50;5955422;23;48185;-93
2022/11/14 14:33:07;;;;;;;;;28.25;26.25;;;;;12.46;76.93;100162.28;5952471;23;45310;-91
2022/11/14 14:36:03;;;;;;;;;21.50;21.50;;;;;11.08;76.41;99932.94;5959057;23;45402;-91
2022/11/14 14:38:29;;;;;;;;;24.25;21.50;;;;;11.10;77.06;99941.72;5993796;23;45284;-92
2022/11/14 14:40:55;;;;;;;;;25.75;24.75;;;;;11.52;76.77;100006.50;5992498;23;45226;-92
2022/11/14 14:43:31;;;;;;;;;17.00;16.00;;;;;10.90;77.45;99888.59;5996131;23;45265;-92
2022/11/14 14:46:02;;;;;;;;;24.25;22.25;;;;;11.56;77.18;99998.41;6047677;23;45194;-93
2022/11/14 14:48:34;;;;;;;;;24.75;19.75;;;;;11.67;77.33;100002.47;5994892;23;44788;-91
2022/11/14 14:51:06;;;;;;;;;25.00;22.50;;;;;11.96;77.47;100053.63;5986643;23;46257;-92
2022/11/14 14:53:36;;;;;;;;;21.75;21.75;;;;;11.46;77.41;99948.47;6005767;23;45224;-92
2022/11/14 14:56:35;;;;;;;;;22.00;19.50;;;;;11.33;77.21;99926.88;6073696;23;45331;-93
2022/11/14 14:59:19;;;;;;;;;17.75;16.25;;;;;12.11;77.13;100060.19;6200793;22;45256;-92
2022/11/14 15:01:54;;;;;;;;;17.75;17.75;;;;;12.48;77.41;100103.94;6259127;22;45205;-94
2022/11/14 15:05:00;;;;;;;;;19.00;17.50;;;;;12.92;77.60;100167.75;6253678;22;44570;-92
2022/11/14 15:07:33;;;;;;;;;17.75;14.50;;;;;12.96;77.27;100169.38;6227587;22;45201;-92
2022/11/14 15:10:02;;;;;;;;;16.50;13.00;;;;;11.65;77.59;99932.84;6223377;22;44855;-92
2022/11/14 15:12:32;;;;;;;;;14.25;12.00;;;;;12.67;78.03;100114.75;6224623;22;47280;-92
2022/11/14 15:15:00;;;;;;;;;20.75;15.25;;;;;11.71;77.77;99932.63;6226950;22;45384;-92
2022/11/14 15:17:27;;;;;;;;;18.75;13.75;;;;;12.95;78.20;100127.84;6222876;22;45172;-92
2022/11/14 15:19:56;;;;;;;;;15.00;13.25;;;;;11.69;77.86;99923.88;6255463;22;44951;-91
2022/11/14 15:22:28;;;;;;;;;14.75;11.50;;;;;11.65;78.09;99923.13;6230505;22;47305;-91
2022/11/14 15:25:05;;;;;;;;;14.75;12.25;;;;;12.07;78.43;99993.19;6255468;22;45364;-92
2022/11/14 15:27:59;;;;;;;;;13.25;11.50;;;;;11.66;78.35;99923.97;6254531;22;45262;-92
2022/11/14 15:30:44;;;;;;;;;9.75;9.75;;;;;11.64;78.36;99924.03;6255617;22;44900;-92
2022/11/14 15:33:31;;;;;;;;;12.25;10.75;;;;;11.52;78.42;99885.63;6228355;22;46300;-91
2022/11/14 15:36:18;;;;;;;;;18.00;15.75;;;;;12.96;78.59;100126.94;6255302;22;45415;-92
2022/11/14 15:38:58;;;;;;;;;12.00;11.25;;;;;12.07;78.85;99993.19;6252966;22;45266;-91
2022/11/14 15:41:28;;;;;;;;;11.25;11.25;;;;;11.96;78.87;99980.31;6230729;22;45211;-92
2022/11/14 15:44:04;;;;;;;;;14.50;12.50;;;;;11.48;78.59;99905.19;6233697;22;48509;-91
2022/11/14 15:46:32;;;;;;;;;16.25;14.00;;;;;13.03;78.84;100154.13;6228908;22;45174;-91
2022/11/14 15:49:13;;;;;;;;;13.50;12.00;;;;;12.09;78.93;100013.41;6231878;22;45235;-92
2022/11/14 15:51:54;;;;;;;;;8.00;7.75;;;;;12.66;78.71;100118.31;6256523;22;45377;-91
2022/11/14 15:54:30;;;;;;;;;15.50;12.50;;;;;12.22;78.77;100040.34;6243623;22;46803;-91
2022/11/14 15:56:58;;;;;;;;;12.00;10.75;;;;;11.15;78.82;99891.31;6245607;22;45264;-91
2022/11/14 15:59:26;;;;;;;;;12.00;12.00;;;;;11.87;78.93;99999.16;6200250;22;45216;-93
2022/11/14 16:01:58;;;;;;;;;13.25;13.25;;;;;11.33;79.06;99909.19;6227448;22;45120;-90